sensor_id;sensor_type;location;lat;lon;timestamp;temperature;humidity
62575;DHT22;53112;45.602;11.904;2022-08-19T00:01:25;24.70;69.50
62575;DHT22;53112;45.602;11.904;2022-08-19T00:03:51;24.80;68.90
62575;DHT22;53112;45.602;11.904;2022-08-19T00:06:17;25.00;68.60
62575;DHT22;53112;45.602;11.904;2022-08-19T00:08:43;25.10;67.20
62575;DHT22;53112;45.602;11.904;2022-08-19T00:11:10;25.20;67.60
62575;DHT22;53112;45.602;11.904;2022-08-19T00:13:36;25.10;69.00
62575;DHT22;53112;45.602;11.904;2022-08-19T00:16:05;24.80;69.50
62575;DHT22;53112;45.602;11.904;2022-08-19T00:18:32;24.60;70.80
62575;DHT22;53112;45.602;11.904;2022-08-19T00:20:58;24.60;71.00
62575;DHT22;53112;45.602;11.904;2022-08-19T00:23:25;24.70;70.20
62575;DHT22;53112;45.602;11.904;2022-08-19T00:25:53;24.90;70.10
62575;DHT22;53112;45.602;11.904;2022-08-19T00:28:19;24.90;70.30
62575;DHT22;53112;45.602;11.904;2022-08-19T00:30:46;24.70;72.00
62575;DHT22;53112;45.602;11.904;2022-08-19T00:33:12;24.40;74.60
62575;DHT22;53112;45.602;11.904;2022-08-19T00:35:39;24.30;75.10
62575;DHT22;53112;45.602;11.904;2022-08-19T00:38:05;24.10;74.60
62575;DHT22;53112;45.602;11.904;2022-08-19T00:40:33;24.00;75.90
62575;DHT22;53112;45.602;11.904;2022-08-19T00:42:59;23.90;76.60
62575;DHT22;53112;45.602;11.904;2022-08-19T00:45:28;23.80;76.60
62575;DHT22;53112;45.602;11.904;2022-08-19T00:47:56;23.90;77.50
62575;DHT22;53112;45.602;11.904;2022-08-19T00:50:23;23.80;78.40
62575;DHT22;53112;45.602;11.904;2022-08-19T00:52:50;23.70;77.90
62575;DHT22;53112;45.602;11.904;2022-08-19T00:55:20;23.70;79.60
62575;DHT22;53112;45.602;11.904;2022-08-19T00:57:55;23.70;80.40
62575;DHT22;53112;45.602;11.904;2022-08-19T01:00:24;23.70;81.00
62575;DHT22;53112;45.602;11.904;2022-08-19T01:02:51;23.60;81.10
62575;DHT22;53112;45.602;11.904;2022-08-19T01:05:21;23.20;81.40
62575;DHT22;53112;45.602;11.904;2022-08-19T01:07:48;23.30;81.40
62575;DHT22;53112;45.602;11.904;2022-08-19T01:10:20;23.50;81.70
62575;DHT22;53112;45.602;11.904;2022-08-19T01:12:49;23.60;81.20
62575;DHT22;53112;45.602;11.904;2022-08-19T01:15:20;23.60;79.80
62575;DHT22;53112;45.602;11.904;2022-08-19T01:17:47;23.60;78.30
62575;DHT22;53112;45.602;11.904;2022-08-19T01:20:17;23.60;79.60
62575;DHT22;53112;45.602;11.904;2022-08-19T01:22:51;23.60;78.50
62575;DHT22;53112;45.602;11.904;2022-08-19T01:25:26;23.60;78.90
62575;DHT22;53112;45.602;11.904;2022-08-19T01:27:53;23.50;78.00
62575;DHT22;53112;45.602;11.904;2022-08-19T01:30:25;23.60;78.20
62575;DHT22;53112;45.602;11.904;2022-08-19T01:32:53;23.50;77.80
62575;DHT22;53112;45.602;11.904;2022-08-19T01:35:21;23.70;77.20
62575;DHT22;53112;45.602;11.904;2022-08-19T01:37:51;23.60;77.30
62575;DHT22;53112;45.602;11.904;2022-08-19T01:40:19;23.50;78.10
62575;DHT22;53112;45.602;11.904;2022-08-19T01:42:47;23.50;77.60
62575;DHT22;53112;45.602;11.904;2022-08-19T01:45:13;23.50;77.10
62575;DHT22;53112;45.602;11.904;2022-08-19T01:47:39;23.70;76.60
62575;DHT22;53112;45.602;11.904;2022-08-19T01:50:07;23.70;76.50
62575;DHT22;53112;45.602;11.904;2022-08-19T01:52:36;23.80;76.20
62575;DHT22;53112;45.602;11.904;2022-08-19T01:55:04;23.80;75.90
62575;DHT22;53112;45.602;11.904;2022-08-19T01:57:31;23.70;76.60
62575;DHT22;53112;45.602;11.904;2022-08-19T01:59:58;23.60;76.70
62575;DHT22;53112;45.602;11.904;2022-08-19T02:02:25;23.60;76.90
62575;DHT22;53112;45.602;11.904;2022-08-19T02:04:51;23.70;76.30
62575;DHT22;53112;45.602;11.904;2022-08-19T02:07:20;23.50;76.70
62575;DHT22;53112;45.602;11.904;2022-08-19T02:09:49;23.50;77.20
62575;DHT22;53112;45.602;11.904;2022-08-19T02:12:16;23.50;76.80
62575;DHT22;53112;45.602;11.904;2022-08-19T02:14:42;23.60;76.70
62575;DHT22;53112;45.602;11.904;2022-08-19T02:17:08;23.60;76.10
62575;DHT22;53112;45.602;11.904;2022-08-19T02:19:34;23.70;76.10
62575;DHT22;53112;45.602;11.904;2022-08-19T02:22:01;23.60;76.60
62575;DHT22;53112;45.602;11.904;2022-08-19T02:24:27;23.50;76.40
62575;DHT22;53112;45.602;11.904;2022-08-19T02:26:54;23.80;75.70
62575;DHT22;53112;45.602;11.904;2022-08-19T02:29:20;23.90;75.00
62575;DHT22;53112;45.602;11.904;2022-08-19T02:31:46;23.60;75.80
62575;DHT22;53112;45.602;11.904;2022-08-19T02:34:12;23.60;75.90
62575;DHT22;53112;45.602;11.904;2022-08-19T02:36:38;23.30;76.70
62575;DHT22;53112;45.602;11.904;2022-08-19T02:39:04;23.30;76.70
62575;DHT22;53112;45.602;11.904;2022-08-19T02:41:32;23.40;76.40
62575;DHT22;53112;45.602;11.904;2022-08-19T02:44:00;23.20;76.70
62575;DHT22;53112;45.602;11.904;2022-08-19T02:46:29;23.10;76.80
62575;DHT22;53112;45.602;11.904;2022-08-19T02:48:59;22.80;77.50
62575;DHT22;53112;45.602;11.904;2022-08-19T02:51:33;22.80;77.70
62575;DHT22;53112;45.602;11.904;2022-08-19T02:53:59;23.10;76.90
62575;DHT22;53112;45.602;11.904;2022-08-19T02:56:26;23.20;76.50
62575;DHT22;53112;45.602;11.904;2022-08-19T02:58:54;23.10;76.50
62575;DHT22;53112;45.602;11.904;2022-08-19T03:01:23;23.20;75.90
62575;DHT22;53112;45.602;11.904;2022-08-19T03:03:50;23.10;76.10
62575;DHT22;53112;45.602;11.904;2022-08-19T03:06:17;23.30;75.50
62575;DHT22;53112;45.602;11.904;2022-08-19T03:08:45;23.30;75.30
62575;DHT22;53112;45.602;11.904;2022-08-19T03:11:19;23.30;74.80
62575;DHT22;53112;45.602;11.904;2022-08-19T03:13:46;23.50;74.70
62575;DHT22;53112;45.602;11.904;2022-08-19T03:16:12;23.40;74.50
62575;DHT22;53112;45.602;11.904;2022-08-19T03:18:38;23.30;74.70
62575;DHT22;53112;45.602;11.904;2022-08-19T03:21:05;23.30;74.80
62575;DHT22;53112;45.602;11.904;2022-08-19T03:23:32;23.50;74.40
62575;DHT22;53112;45.602;11.904;2022-08-19T03:25:58;23.50;73.60
62575;DHT22;53112;45.602;11.904;2022-08-19T03:28:25;23.40;75.10
62575;DHT22;53112;45.602;11.904;2022-08-19T03:31:05;23.20;75.30
62575;DHT22;53112;45.602;11.904;2022-08-19T03:33:33;23.40;74.70
62575;DHT22;53112;45.602;11.904;2022-08-19T03:36:09;23.40;74.60
62575;DHT22;53112;45.602;11.904;2022-08-19T03:38:47;23.50;73.60
62575;DHT22;53112;45.602;11.904;2022-08-19T03:41:24;23.60;73.30
62575;DHT22;53112;45.602;11.904;2022-08-19T03:43:52;23.50;73.10
62575;DHT22;53112;45.602;11.904;2022-08-19T03:46:24;23.70;72.30
62575;DHT22;53112;45.602;11.904;2022-08-19T03:48:53;23.70;72.30
62575;DHT22;53112;45.602;11.904;2022-08-19T03:51:28;23.80;72.20
62575;DHT22;53112;45.602;11.904;2022-08-19T03:53:58;23.70;72.30
62575;DHT22;53112;45.602;11.904;2022-08-19T03:56:25;23.80;72.10
62575;DHT22;53112;45.602;11.904;2022-08-19T03:58:53;23.80;71.80
62575;DHT22;53112;45.602;11.904;2022-08-19T04:01:22;23.50;71.90
62575;DHT22;53112;45.602;11.904;2022-08-19T04:03:48;23.50;72.20
62575;DHT22;53112;45.602;11.904;2022-08-19T04:06:24;23.60;71.20
62575;DHT22;53112;45.602;11.904;2022-08-19T04:08:52;23.70;71.30
62575;DHT22;53112;45.602;11.904;2022-08-19T04:11:27;23.40;72.50
62575;DHT22;53112;45.602;11.904;2022-08-19T04:13:55;23.20;72.80
62575;DHT22;53112;45.602;11.904;2022-08-19T04:16:24;23.10;73.30
62575;DHT22;53112;45.602;11.904;2022-08-19T04:18:50;23.20;72.90
62575;DHT22;53112;45.602;11.904;2022-08-19T04:21:22;23.20;72.50
62575;DHT22;53112;45.602;11.904;2022-08-19T04:23:48;23.20;72.80
62575;DHT22;53112;45.602;11.904;2022-08-19T04:26:17;23.40;72.20
62575;DHT22;53112;45.602;11.904;2022-08-19T04:28:45;23.50;71.80
62575;DHT22;53112;45.602;11.904;2022-08-19T04:31:21;23.40;71.80
62575;DHT22;53112;45.602;11.904;2022-08-19T04:33:48;23.20;72.80
62575;DHT22;53112;45.602;11.904;2022-08-19T04:36:22;23.00;74.20
62575;DHT22;53112;45.602;11.904;2022-08-19T04:38:53;22.90;74.50
62575;DHT22;53112;45.602;11.904;2022-08-19T04:41:19;22.90;74.50
62575;DHT22;53112;45.602;11.904;2022-08-19T04:44:04;22.80;75.40
62575;DHT22;53112;45.602;11.904;2022-08-19T04:46:31;23.00;75.00
62575;DHT22;53112;45.602;11.904;2022-08-19T04:49:01;23.10;74.60
62575;DHT22;53112;45.602;11.904;2022-08-19T04:51:28;23.20;73.80
62575;DHT22;53112;45.602;11.904;2022-08-19T04:53:57;23.10;73.80
62575;DHT22;53112;45.602;11.904;2022-08-19T04:56:26;23.20;73.70
62575;DHT22;53112;45.602;11.904;2022-08-19T04:58:54;23.30;74.20
62575;DHT22;53112;45.602;11.904;2022-08-19T05:01:24;23.40;73.90
62575;DHT22;53112;45.602;11.904;2022-08-19T05:03:50;23.30;73.60
62575;DHT22;53112;45.602;11.904;2022-08-19T05:06:19;23.50;72.80
62575;DHT22;53112;45.602;11.904;2022-08-19T05:08:46;23.30;73.80
62575;DHT22;53112;45.602;11.904;2022-08-19T05:11:20;23.50;73.50
62575;DHT22;53112;45.602;11.904;2022-08-19T05:13:47;23.70;72.20
62575;DHT22;53112;45.602;11.904;2022-08-19T05:16:19;23.90;71.20
62575;DHT22;53112;45.602;11.904;2022-08-19T05:18:46;23.90;71.80
62575;DHT22;53112;45.602;11.904;2022-08-19T05:21:32;24.10;71.00
62575;DHT22;53112;45.602;11.904;2022-08-19T05:24:17;24.00;71.30
62575;DHT22;53112;45.602;11.904;2022-08-19T05:26:46;24.20;71.30
62575;DHT22;53112;45.602;11.904;2022-08-19T05:29:16;24.40;70.30
62575;DHT22;53112;45.602;11.904;2022-08-19T05:31:43;24.60;68.70
62575;DHT22;53112;45.602;11.904;2022-08-19T05:34:10;24.40;69.40
62575;DHT22;53112;45.602;11.904;2022-08-19T05:36:39;24.60;70.00
62575;DHT22;53112;45.602;11.904;2022-08-19T05:39:10;24.80;69.40
62575;DHT22;53112;45.602;11.904;2022-08-19T05:41:44;25.20;68.80
62575;DHT22;53112;45.602;11.904;2022-08-19T05:44:11;25.70;67.70
62575;DHT22;53112;45.602;11.904;2022-08-19T05:46:38;25.90;66.00
62575;DHT22;53112;45.602;11.904;2022-08-19T05:49:06;26.00;66.10
62575;DHT22;53112;45.602;11.904;2022-08-19T05:51:33;26.10;65.20
62575;DHT22;53112;45.602;11.904;2022-08-19T05:54:01;26.00;65.00
62575;DHT22;53112;45.602;11.904;2022-08-19T05:56:27;25.90;64.00
62575;DHT22;53112;45.602;11.904;2022-08-19T05:58:56;25.50;65.40
62575;DHT22;53112;45.602;11.904;2022-08-19T06:01:21;25.60;65.50
62575;DHT22;53112;45.602;11.904;2022-08-19T06:03:47;26.00;64.30
62575;DHT22;53112;45.602;11.904;2022-08-19T06:06:15;25.70;64.10
62575;DHT22;53112;45.602;11.904;2022-08-19T06:08:41;25.70;63.80
62575;DHT22;53112;45.602;11.904;2022-08-19T06:11:42;25.80;63.00
62575;DHT22;53112;45.602;11.904;2022-08-19T06:14:18;25.80;63.00
62575;DHT22;53112;45.602;11.904;2022-08-19T06:16:46;25.90;63.50
62575;DHT22;53112;45.602;11.904;2022-08-19T06:19:15;26.00;63.00
62575;DHT22;53112;45.602;11.904;2022-08-19T06:21:44;25.80;63.20
62575;DHT22;53112;45.602;11.904;2022-08-19T06:24:11;25.90;62.20
62575;DHT22;53112;45.602;11.904;2022-08-19T06:26:40;25.90;62.40
62575;DHT22;53112;45.602;11.904;2022-08-19T06:29:08;26.00;61.90
62575;DHT22;53112;45.602;11.904;2022-08-19T06:31:35;26.10;62.40
62575;DHT22;53112;45.602;11.904;2022-08-19T06:34:04;26.10;62.60
62575;DHT22;53112;45.602;11.904;2022-08-19T06:36:37;26.30;62.40
62575;DHT22;53112;45.602;11.904;2022-08-19T06:39:17;26.60;60.60
62575;DHT22;53112;45.602;11.904;2022-08-19T06:41:47;26.90;61.10
62575;DHT22;53112;45.602;11.904;2022-08-19T06:44:14;27.50;59.00
62575;DHT22;53112;45.602;11.904;2022-08-19T06:46:41;27.70;57.40
62575;DHT22;53112;45.602;11.904;2022-08-19T06:49:08;28.20;56.70
62575;DHT22;53112;45.602;11.904;2022-08-19T06:51:43;28.30;55.40
62575;DHT22;53112;45.602;11.904;2022-08-19T06:54:10;28.40;54.80
62575;DHT22;53112;45.602;11.904;2022-08-19T06:56:37;28.20;54.60
62575;DHT22;53112;45.602;11.904;2022-08-19T06:59:09;28.30;56.50
62575;DHT22;53112;45.602;11.904;2022-08-19T07:01:44;28.30;55.30
62575;DHT22;53112;45.602;11.904;2022-08-19T07:04:15;28.20;55.30
62575;DHT22;53112;45.602;11.904;2022-08-19T07:06:42;28.20;55.50
62575;DHT22;53112;45.602;11.904;2022-08-19T07:09:12;28.00;56.00
62575;DHT22;53112;45.602;11.904;2022-08-19T07:11:39;27.80;56.30
62575;DHT22;53112;45.602;11.904;2022-08-19T07:14:08;27.80;55.80
62575;DHT22;53112;45.602;11.904;2022-08-19T07:16:34;27.90;56.90
62575;DHT22;53112;45.602;11.904;2022-08-19T07:19:00;27.10;59.90
62575;DHT22;53112;45.602;11.904;2022-08-19T07:21:27;26.80;60.20
62575;DHT22;53112;45.602;11.904;2022-08-19T07:23:59;26.60;61.20
62575;DHT22;53112;45.602;11.904;2022-08-19T07:26:28;26.40;61.30
62575;DHT22;53112;45.602;11.904;2022-08-19T07:28:56;26.00;61.80
62575;DHT22;53112;45.602;11.904;2022-08-19T07:31:26;26.20;62.00
62575;DHT22;53112;45.602;11.904;2022-08-19T07:33:53;26.30;61.60
62575;DHT22;53112;45.602;11.904;2022-08-19T07:36:26;26.30;61.50
62575;DHT22;53112;45.602;11.904;2022-08-19T07:38:56;26.30;61.30
62575;DHT22;53112;45.602;11.904;2022-08-19T07:41:25;26.50;61.40
62575;DHT22;53112;45.602;11.904;2022-08-19T07:43:52;26.20;62.20
62575;DHT22;53112;45.602;11.904;2022-08-19T07:46:19;26.20;62.60
62575;DHT22;53112;45.602;11.904;2022-08-19T07:48:47;26.40;62.50
62575;DHT22;53112;45.602;11.904;2022-08-19T07:51:18;26.10;63.00
62575;DHT22;53112;45.602;11.904;2022-08-19T07:53:45;26.40;62.90
62575;DHT22;53112;45.602;11.904;2022-08-19T07:56:13;26.60;62.50
62575;DHT22;53112;45.602;11.904;2022-08-19T07:58:42;26.60;62.70
62575;DHT22;53112;45.602;11.904;2022-08-19T08:01:12;26.50;63.30
62575;DHT22;53112;45.602;11.904;2022-08-19T08:03:38;26.70;62.70
62575;DHT22;53112;45.602;11.904;2022-08-19T08:06:23;26.80;62.40
62575;DHT22;53112;45.602;11.904;2022-08-19T08:09:09;26.60;62.50
62575;DHT22;53112;45.602;11.904;2022-08-19T08:11:47;26.60;63.10
62575;DHT22;53112;45.602;11.904;2022-08-19T08:14:28;26.70;63.00
62575;DHT22;53112;45.602;11.904;2022-08-19T08:16:55;26.70;62.80
62575;DHT22;53112;45.602;11.904;2022-08-19T08:19:23;26.90;62.50
62575;DHT22;53112;45.602;11.904;2022-08-19T08:21:50;27.10;62.30
62575;DHT22;53112;45.602;11.904;2022-08-19T08:24:17;26.90;62.70
62575;DHT22;53112;45.602;11.904;2022-08-19T08:26:44;26.90;62.90
62575;DHT22;53112;45.602;11.904;2022-08-19T08:29:10;26.60;64.20
62575;DHT22;53112;45.602;11.904;2022-08-19T08:31:40;26.50;64.70
62575;DHT22;53112;45.602;11.904;2022-08-19T08:34:08;26.30;65.20
62575;DHT22;53112;45.602;11.904;2022-08-19T08:36:37;26.20;66.00
62575;DHT22;53112;45.602;11.904;2022-08-19T08:39:07;26.00;66.50
62575;DHT22;53112;45.602;11.904;2022-08-19T08:44:48;25.80;67.00
62575;DHT22;53112;45.602;11.904;2022-08-19T08:47:19;25.90;67.20
62575;DHT22;53112;45.602;11.904;2022-08-19T08:49:59;25.60;66.60
62575;DHT22;53112;45.602;11.904;2022-08-19T08:52:31;25.50;65.30
62575;DHT22;53112;45.602;11.904;2022-08-19T08:55:12;25.30;64.30
62575;DHT22;53112;45.602;11.904;2022-08-19T09:00:30;25.90;62.40
62575;DHT22;53112;45.602;11.904;2022-08-19T09:02:59;26.10;62.90
62575;DHT22;53112;45.602;11.904;2022-08-19T09:05:57;26.20;62.60
62575;DHT22;53112;45.602;11.904;2022-08-19T09:08:59;26.00;62.40
62575;DHT22;53112;45.602;11.904;2022-08-19T09:16:57;27.00;61.70
62575;DHT22;53112;45.602;11.904;2022-08-19T09:19:24;27.50;59.40
62575;DHT22;53112;45.602;11.904;2022-08-19T09:21:49;27.90;58.90
62575;DHT22;53112;45.602;11.904;2022-08-19T09:24:16;28.20;57.60
62575;DHT22;53112;45.602;11.904;2022-08-19T09:26:42;27.80;58.10
62575;DHT22;53112;45.602;11.904;2022-08-19T09:29:09;28.00;56.70
62575;DHT22;53112;45.602;11.904;2022-08-19T09:31:36;28.50;55.00
62575;DHT22;53112;45.602;11.904;2022-08-19T09:34:02;28.10;56.60
62575;DHT22;53112;45.602;11.904;2022-08-19T09:36:31;28.30;55.80
62575;DHT22;53112;45.602;11.904;2022-08-19T09:38:59;28.10;55.30
62575;DHT22;53112;45.602;11.904;2022-08-19T09:41:26;28.10;55.70
62575;DHT22;53112;45.602;11.904;2022-08-19T09:43:54;28.10;55.10
62575;DHT22;53112;45.602;11.904;2022-08-19T09:46:26;28.20;54.90
62575;DHT22;53112;45.602;11.904;2022-08-19T09:48:52;28.10;55.60
62575;DHT22;53112;45.602;11.904;2022-08-19T09:51:21;28.30;55.40
62575;DHT22;53112;45.602;11.904;2022-08-19T09:53:49;28.50;54.90
62575;DHT22;53112;45.602;11.904;2022-08-19T09:56:22;28.80;53.70
62575;DHT22;53112;45.602;11.904;2022-08-19T09:58:49;28.20;53.20
62575;DHT22;53112;45.602;11.904;2022-08-19T10:01:26;28.40;54.20
62575;DHT22;53112;45.602;11.904;2022-08-19T10:03:56;28.00;55.10
62575;DHT22;53112;45.602;11.904;2022-08-19T10:06:25;28.00;55.40
62575;DHT22;53112;45.602;11.904;2022-08-19T10:08:52;27.80;55.50
62575;DHT22;53112;45.602;11.904;2022-08-19T10:11:19;27.70;56.70
62575;DHT22;53112;45.602;11.904;2022-08-19T10:13:47;27.90;57.00
62575;DHT22;53112;45.602;11.904;2022-08-19T10:16:17;28.30;55.10
62575;DHT22;53112;45.602;11.904;2022-08-19T10:18:45;28.30;55.20
62575;DHT22;53112;45.602;11.904;2022-08-19T10:21:14;28.10;53.10
62575;DHT22;53112;45.602;11.904;2022-08-19T10:23:43;27.80;54.30
62575;DHT22;53112;45.602;11.904;2022-08-19T10:26:20;28.00;54.20
62575;DHT22;53112;45.602;11.904;2022-08-19T10:28:48;28.00;53.10
62575;DHT22;53112;45.602;11.904;2022-08-19T10:31:16;27.90;53.20
62575;DHT22;53112;45.602;11.904;2022-08-19T10:33:43;27.80;53.90
62575;DHT22;53112;45.602;11.904;2022-08-19T10:36:13;28.10;53.60
62575;DHT22;53112;45.602;11.904;2022-08-19T10:38:45;28.30;52.60
62575;DHT22;53112;45.602;11.904;2022-08-19T10:41:15;28.50;52.40
62575;DHT22;53112;45.602;11.904;2022-08-19T10:43:42;28.90;50.40
62575;DHT22;53112;45.602;11.904;2022-08-19T10:46:13;28.80;50.20
62575;DHT22;53112;45.602;11.904;2022-08-19T10:48:42;29.50;49.10
62575;DHT22;53112;45.602;11.904;2022-08-19T10:51:09;29.60;48.70
62575;DHT22;53112;45.602;11.904;2022-08-19T10:53:55;29.50;47.50
62575;DHT22;53112;45.602;11.904;2022-08-19T10:56:22;29.30;48.40
62575;DHT22;53112;45.602;11.904;2022-08-19T10:59:07;29.40;46.60
62575;DHT22;53112;45.602;11.904;2022-08-19T11:01:34;30.10;46.00
62575;DHT22;53112;45.602;11.904;2022-08-19T11:04:01;31.10;45.90
62575;DHT22;53112;45.602;11.904;2022-08-19T11:06:28;31.60;44.40
62575;DHT22;53112;45.602;11.904;2022-08-19T11:09:02;31.50;43.60
62575;DHT22;53112;45.602;11.904;2022-08-19T11:11:28;31.10;43.40
62575;DHT22;53112;45.602;11.904;2022-08-19T11:13:55;31.70;43.50
62575;DHT22;53112;45.602;11.904;2022-08-19T11:16:26;32.30;42.00
62575;DHT22;53112;45.602;11.904;2022-08-19T11:18:58;33.10;41.30
62575;DHT22;53112;45.602;11.904;2022-08-19T11:21:31;33.40;39.10
62575;DHT22;53112;45.602;11.904;2022-08-19T11:24:00;33.10;40.10
62575;DHT22;53112;45.602;11.904;2022-08-19T11:26:27;33.60;40.80
62575;DHT22;53112;45.602;11.904;2022-08-19T11:28:56;33.90;40.80
62575;DHT22;53112;45.602;11.904;2022-08-19T11:31:24;33.60;39.40
62575;DHT22;53112;45.602;11.904;2022-08-19T11:33:51;33.10;40.70
62575;DHT22;53112;45.602;11.904;2022-08-19T11:36:20;33.30;39.90
62575;DHT22;53112;45.602;11.904;2022-08-19T11:38:50;32.70;40.60
62575;DHT22;53112;45.602;11.904;2022-08-19T11:41:19;32.90;40.80
62575;DHT22;53112;45.602;11.904;2022-08-19T11:43:45;32.60;41.90
62575;DHT22;53112;45.602;11.904;2022-08-19T11:46:13;32.00;43.20
62575;DHT22;53112;45.602;11.904;2022-08-19T11:48:41;31.80;43.90
62575;DHT22;53112;45.602;11.904;2022-08-19T11:51:10;31.20;44.40
62575;DHT22;53112;45.602;11.904;2022-08-19T11:53:37;30.90;45.70
62575;DHT22;53112;45.602;11.904;2022-08-19T11:56:04;31.50;44.90
62575;DHT22;53112;45.602;11.904;2022-08-19T11:58:30;31.30;44.40
62575;DHT22;53112;45.602;11.904;2022-08-19T12:00:56;31.40;43.00
62575;DHT22;53112;45.602;11.904;2022-08-19T12:03:23;31.80;42.00
62575;DHT22;53112;45.602;11.904;2022-08-19T12:05:49;32.00;42.70
62575;DHT22;53112;45.602;11.904;2022-08-19T12:08:16;32.60;41.10
62575;DHT22;53112;45.602;11.904;2022-08-19T12:10:43;33.50;40.40
62575;DHT22;53112;45.602;11.904;2022-08-19T12:13:10;33.90;38.40
62575;DHT22;53112;45.602;11.904;2022-08-19T12:15:39;33.60;38.40
62575;DHT22;53112;45.602;11.904;2022-08-19T12:18:11;34.70;36.80
62575;DHT22;53112;45.602;11.904;2022-08-19T12:20:41;35.10;37.20
62575;DHT22;53112;45.602;11.904;2022-08-19T12:23:09;35.60;36.10
62575;DHT22;53112;45.602;11.904;2022-08-19T12:25:36;35.40;36.80
62575;DHT22;53112;45.602;11.904;2022-08-19T12:28:03;34.60;37.30
62575;DHT22;53112;45.602;11.904;2022-08-19T12:30:29;32.70;41.20
62575;DHT22;53112;45.602;11.904;2022-08-19T12:32:55;32.70;41.70
62575;DHT22;53112;45.602;11.904;2022-08-19T12:35:21;32.70;41.90
62575;DHT22;53112;45.602;11.904;2022-08-19T12:37:48;33.50;40.90
62575;DHT22;53112;45.602;11.904;2022-08-19T12:40:15;33.80;39.80
62575;DHT22;53112;45.602;11.904;2022-08-19T12:42:41;33.40;39.60
62575;DHT22;53112;45.602;11.904;2022-08-19T12:45:12;34.30;39.00
62575;DHT22;53112;45.602;11.904;2022-08-19T12:47:38;35.10;37.80
62575;DHT22;53112;45.602;11.904;2022-08-19T12:50:06;36.00;36.30
62575;DHT22;53112;45.602;11.904;2022-08-19T12:52:35;36.80;34.90
62575;DHT22;53112;45.602;11.904;2022-08-19T12:55:07;36.00;34.20
62575;DHT22;53112;45.602;11.904;2022-08-19T12:57:34;36.30;35.00
62575;DHT22;53112;45.602;11.904;2022-08-19T13:00:10;36.00;32.40
62575;DHT22;53112;45.602;11.904;2022-08-19T13:02:38;35.80;33.70
62575;DHT22;53112;45.602;11.904;2022-08-19T13:05:07;35.70;35.00
62575;DHT22;53112;45.602;11.904;2022-08-19T13:07:34;35.90;34.50
62575;DHT22;53112;45.602;11.904;2022-08-19T13:10:01;35.50;35.00
62575;DHT22;53112;45.602;11.904;2022-08-19T13:12:27;35.60;35.00
62575;DHT22;53112;45.602;11.904;2022-08-19T13:14:54;35.10;35.30
62575;DHT22;53112;45.602;11.904;2022-08-19T13:17:20;33.60;36.50
62575;DHT22;53112;45.602;11.904;2022-08-19T13:19:46;33.60;37.40
62575;DHT22;53112;45.602;11.904;2022-08-19T13:22:12;33.70;37.90
62575;DHT22;53112;45.602;11.904;2022-08-19T13:24:39;34.10;37.70
62575;DHT22;53112;45.602;11.904;2022-08-19T13:27:05;33.50;38.70
62575;DHT22;53112;45.602;11.904;2022-08-19T13:29:32;33.50;38.60
62575;DHT22;53112;45.602;11.904;2022-08-19T13:32:17;33.60;38.50
62575;DHT22;53112;45.602;11.904;2022-08-19T13:35:02;34.20;37.70
62575;DHT22;53112;45.602;11.904;2022-08-19T13:37:29;34.00;37.10
62575;DHT22;53112;45.602;11.904;2022-08-19T13:40:16;34.00;37.20
62575;DHT22;53112;45.602;11.904;2022-08-19T13:42:46;34.00;37.90
62575;DHT22;53112;45.602;11.904;2022-08-19T13:45:14;33.60;37.80
62575;DHT22;53112;45.602;11.904;2022-08-19T13:47:41;33.20;38.10
62575;DHT22;53112;45.602;11.904;2022-08-19T13:50:13;33.80;38.20
62575;DHT22;53112;45.602;11.904;2022-08-19T13:52:40;35.10;36.00
62575;DHT22;53112;45.602;11.904;2022-08-19T13:55:07;35.30;36.70
62575;DHT22;53112;45.602;11.904;2022-08-19T13:57:34;36.00;35.30
62575;DHT22;53112;45.602;11.904;2022-08-19T14:00:01;36.00;34.30
62575;DHT22;53112;45.602;11.904;2022-08-19T14:02:27;36.70;34.80
62575;DHT22;53112;45.602;11.904;2022-08-19T14:04:53;37.10;34.60
62575;DHT22;53112;45.602;11.904;2022-08-19T14:07:19;37.10;34.40
62575;DHT22;53112;45.602;11.904;2022-08-19T14:09:47;37.70;34.20
62575;DHT22;53112;45.602;11.904;2022-08-19T14:12:13;37.80;33.70
62575;DHT22;53112;45.602;11.904;2022-08-19T14:14:39;37.40;34.10
62575;DHT22;53112;45.602;11.904;2022-08-19T14:17:06;37.00;34.60
62575;DHT22;53112;45.602;11.904;2022-08-19T14:19:33;37.50;34.20
62575;DHT22;53112;45.602;11.904;2022-08-19T14:21:59;37.80;33.50
62575;DHT22;53112;45.602;11.904;2022-08-19T14:24:25;37.30;33.80
62575;DHT22;53112;45.602;11.904;2022-08-19T14:26:51;37.70;33.40
62575;DHT22;53112;45.602;11.904;2022-08-19T14:29:17;37.90;33.00
62575;DHT22;53112;45.602;11.904;2022-08-19T14:31:43;37.30;32.70
62575;DHT22;53112;45.602;11.904;2022-08-19T14:34:10;36.60;33.90
62575;DHT22;53112;45.602;11.904;2022-08-19T14:36:38;36.70;34.10
62575;DHT22;53112;45.602;11.904;2022-08-19T14:39:04;36.70;33.30
62575;DHT22;53112;45.602;11.904;2022-08-19T14:41:31;36.40;34.30
62575;DHT22;53112;45.602;11.904;2022-08-19T14:43:58;36.00;35.20
62575;DHT22;53112;45.602;11.904;2022-08-19T14:46:27;36.10;35.60
62575;DHT22;53112;45.602;11.904;2022-08-19T14:48:55;36.20;35.50
62575;DHT22;53112;45.602;11.904;2022-08-19T14:51:22;35.90;35.70
62575;DHT22;53112;45.602;11.904;2022-08-19T14:53:49;36.00;36.80
62575;DHT22;53112;45.602;11.904;2022-08-19T14:56:20;35.60;37.70
62575;DHT22;53112;45.602;11.904;2022-08-19T14:58:47;35.30;37.40
62575;DHT22;53112;45.602;11.904;2022-08-19T15:01:17;34.70;38.80
62575;DHT22;53112;45.602;11.904;2022-08-19T15:03:46;34.80;38.90
62575;DHT22;53112;45.602;11.904;2022-08-19T15:06:13;35.60;37.50
62575;DHT22;53112;45.602;11.904;2022-08-19T15:08:41;36.00;36.90
62575;DHT22;53112;45.602;11.904;2022-08-19T15:11:15;36.40;36.10
62575;DHT22;53112;45.602;11.904;2022-08-19T15:13:43;36.60;35.70
62575;DHT22;53112;45.602;11.904;2022-08-19T15:16:11;36.50;35.60
62575;DHT22;53112;45.602;11.904;2022-08-19T15:18:37;36.30;35.30
62575;DHT22;53112;45.602;11.904;2022-08-19T15:21:04;36.90;34.80
62575;DHT22;53112;45.602;11.904;2022-08-19T15:23:30;36.40;35.10
62575;DHT22;53112;45.602;11.904;2022-08-19T15:25:56;36.40;35.10
62575;DHT22;53112;45.602;11.904;2022-08-19T15:28:24;36.80;34.50
62575;DHT22;53112;45.602;11.904;2022-08-19T15:30:50;37.10;34.80
62575;DHT22;53112;45.602;11.904;2022-08-19T15:33:17;36.50;34.60
62575;DHT22;53112;45.602;11.904;2022-08-19T15:35:46;36.20;36.00
62575;DHT22;53112;45.602;11.904;2022-08-19T15:38:17;35.50;37.00